createdAt,value
2018-11-26T00:00:49.538Z,14.10
2018-11-26T00:01:49.527Z,13.60
2018-11-26T00:02:49.518Z,14.50
2018-11-26T00:03:49.506Z,13.89
2018-11-26T00:04:49.496Z,13.89
2018-11-26T00:05:49.487Z,13.89
2018-11-26T00:06:49.474Z,13.50
2018-11-26T00:07:49.465Z,13.39
2018-11-26T00:08:49.453Z,14.00
2018-11-26T00:09:49.445Z,13.00
2018-11-26T00:10:49.430Z,14.10
2018-11-26T00:11:49.424Z,14.10
2018-11-26T00:12:49.407Z,13.60
2018-11-26T00:13:49.398Z,13.10
2018-11-26T00:14:49.386Z,13.10
2018-11-26T00:15:49.377Z,14.39
2018-11-26T00:16:49.368Z,13.60
2018-11-26T00:17:49.355Z,13.30
2018-11-26T00:18:49.346Z,14.60
2018-11-26T00:19:49.333Z,15.00
2018-11-26T00:20:49.321Z,13.80
2018-11-26T00:21:49.313Z,14.30
2018-11-26T00:22:49.303Z,14.10
2018-11-26T00:23:49.292Z,15.10
2018-11-26T00:24:49.278Z,14.60
2018-11-26T00:25:49.270Z,13.69
2018-11-26T00:26:49.258Z,14.60
2018-11-26T00:27:49.246Z,13.80
2018-11-26T00:28:49.238Z,14.39
2018-11-26T00:29:49.226Z,14.50
2018-11-26T00:30:49.213Z,14.19
2018-11-26T00:31:49.204Z,13.10
2018-11-26T00:32:49.195Z,13.69
2018-11-26T00:33:49.183Z,15.00
2018-11-26T00:34:49.170Z,14.89
2018-11-26T00:35:49.164Z,13.60
2018-11-26T00:36:49.153Z,13.80
2018-11-26T00:37:49.141Z,14.00
2018-11-26T00:38:49.128Z,14.10
2018-11-26T00:39:49.121Z,13.39
2018-11-26T00:40:49.107Z,13.69
2018-11-26T00:41:49.101Z,13.60
2018-11-26T00:42:49.088Z,14.00
2018-11-26T00:43:49.075Z,13.39
2018-11-26T00:44:49.065Z,13.50
2018-11-26T00:45:49.059Z,13.30
2018-11-26T00:46:49.040Z,14.69
2018-11-26T00:47:49.035Z,15.19
2018-11-26T00:48:49.020Z,15.00
2018-11-26T00:49:49.012Z,14.30
2018-11-26T00:50:48.997Z,13.00
2018-11-26T00:51:48.988Z,15.19
2018-11-26T00:52:48.976Z,13.30
2018-11-26T00:53:48.971Z,14.00
2018-11-26T00:54:48.955Z,13.50
2018-11-26T00:55:48.944Z,13.69
2018-11-26T00:56:48.934Z,13.50
2018-11-26T00:57:48.923Z,14.00
2018-11-26T00:58:48.914Z,13.39
2018-11-26T00:59:48.903Z,13.80
2018-11-26T01:00:48.889Z,13.80
2018-11-26T01:01:48.882Z,13.69
2018-11-26T01:02:48.874Z,13.39
2018-11-26T01:03:48.858Z,14.39
2018-11-26T01:04:48.847Z,14.19
2018-11-26T01:05:48.841Z,14.50
2018-11-26T01:06:48.827Z,14.80
2018-11-26T01:07:48.830Z,14.89
2018-11-26T01:08:48.808Z,14.10
2018-11-26T01:09:48.793Z,15.39
2018-11-26T01:10:48.785Z,15.19
2018-11-26T01:11:48.774Z,14.80
2018-11-26T01:12:48.761Z,14.39
2018-11-26T01:13:48.751Z,15.00
2018-11-26T01:14:48.742Z,14.89
2018-11-26T01:15:48.735Z,14.69
2018-11-26T01:16:48.720Z,14.69
2018-11-26T01:17:48.709Z,14.19
2018-11-26T01:18:48.696Z,14.10
2018-11-26T01:19:48.685Z,15.19
2018-11-26T01:20:48.674Z,15.60
2018-11-26T01:21:48.673Z,14.60
2018-11-26T01:22:48.655Z,13.50
2018-11-26T01:23:48.644Z,13.00
2018-11-26T01:24:48.632Z,14.50
2018-11-26T01:25:48.623Z,16.10
2018-11-26T01:26:48.612Z,15.80
2018-11-26T01:27:48.599Z,15.10
2018-11-26T01:28:48.595Z,14.80
2018-11-26T01:29:48.578Z,14.89
2018-11-26T01:30:48.567Z,13.80
2018-11-26T01:31:48.556Z,13.39
2018-11-26T01:32:48.544Z,13.10
2018-11-26T01:33:48.537Z,12.60
2018-11-26T01:34:48.523Z,12.89
2018-11-26T01:35:48.515Z,15.00
2018-11-26T01:36:48.502Z,14.89
2018-11-26T01:37:48.493Z,14.19
2018-11-26T01:38:48.483Z,14.50
2018-11-26T01:39:48.469Z,15.50
2018-11-26T01:40:48.459Z,16.60
2018-11-26T01:41:48.450Z,15.89
2018-11-26T01:42:48.438Z,16.70
2018-11-26T01:43:48.427Z,16.10
2018-11-26T01:44:48.415Z,17.60
2018-11-26T01:45:48.406Z,18.20
2018-11-26T01:46:48.396Z,17.10
2018-11-26T01:47:48.382Z,17.89
2018-11-26T01:48:48.372Z,18.10
2018-11-26T01:49:48.361Z,17.10
2018-11-26T01:50:48.352Z,16.39
2018-11-26T01:51:48.340Z,16.89
2018-11-26T01:52:48.335Z,16.50
2018-11-26T01:53:48.319Z,16.50
2018-11-26T01:54:48.307Z,16.70
2018-11-26T01:55:48.298Z,16.50
2018-11-26T01:56:48.285Z,16.29
2018-11-26T01:57:48.278Z,16.20
2018-11-26T01:58:48.266Z,16.20
2018-11-26T01:59:48.254Z,15.69
2018-11-26T02:00:48.244Z,16.10
2018-11-26T02:01:48.238Z,16.79
2018-11-26T02:02:48.223Z,16.79
2018-11-26T02:03:48.210Z,17.20
2018-11-26T02:04:48.200Z,17.50
2018-11-26T02:05:48.201Z,17.70
2018-11-26T02:06:48.186Z,17.00
2018-11-26T02:07:48.168Z,16.60
2018-11-26T02:08:48.158Z,16.89
2018-11-26T02:09:48.146Z,17.10
2018-11-26T02:10:48.135Z,16.00
2018-11-26T02:11:48.124Z,16.50
2018-11-26T02:12:48.115Z,17.10
2018-11-26T02:13:48.103Z,17.60
2018-11-26T02:14:48.091Z,16.50
2018-11-26T02:15:48.089Z,16.70
2018-11-26T02:16:48.073Z,17.00
2018-11-26T02:17:48.060Z,16.60
2018-11-26T02:18:48.051Z,17.29
2018-11-26T02:19:48.040Z,16.29
2018-11-26T02:20:48.028Z,16.20
2018-11-26T02:21:48.020Z,16.00
2018-11-26T02:22:48.011Z,15.89
2018-11-26T02:23:47.996Z,17.10
2018-11-26T02:24:47.983Z,15.50
2018-11-26T02:25:47.973Z,17.00
2018-11-26T02:26:47.964Z,18.20
2018-11-26T02:27:47.951Z,16.60
2018-11-26T02:28:47.943Z,17.50
2018-11-26T02:29:47.930Z,17.50
2018-11-26T02:30:47.919Z,17.00
2018-11-26T02:31:47.908Z,17.60
2018-11-26T02:32:47.901Z,18.39
2018-11-26T02:33:47.888Z,17.70
2018-11-26T02:34:47.881Z,17.50
2018-11-26T02:35:47.867Z,17.50
2018-11-26T02:36:47.857Z,19.20
2018-11-26T02:37:47.845Z,17.50
2018-11-26T02:38:47.835Z,17.60
2018-11-26T02:39:47.824Z,18.20
2018-11-26T02:40:47.811Z,17.89
2018-11-26T02:41:47.802Z,17.00
2018-11-26T02:42:47.792Z,16.39
2018-11-26T02:43:47.782Z,18.29
2018-11-26T02:44:47.774Z,20.70
2018-11-26T02:45:47.758Z,16.70
2018-11-26T02:46:47.747Z,18.29
2018-11-26T02:47:47.736Z,17.79
2018-11-26T02:48:47.727Z,16.89
2018-11-26T02:49:47.718Z,17.00
2018-11-26T02:50:47.704Z,17.60
2018-11-26T02:51:47.696Z,16.79
2018-11-26T02:52:47.687Z,17.00
2018-11-26T02:53:47.674Z,17.60
2018-11-26T02:54:47.662Z,17.20
2018-11-26T02:55:47.653Z,17.79
2018-11-26T02:56:47.641Z,17.20
2018-11-26T02:57:47.631Z,17.79
2018-11-26T02:58:47.617Z,16.50
2018-11-26T02:59:47.609Z,18.39
2018-11-26T03:00:47.597Z,16.79
2018-11-26T03:01:47.588Z,17.79
2018-11-26T03:02:47.576Z,18.29
2018-11-26T03:03:47.566Z,17.00
2018-11-26T03:04:47.552Z,19.39
2018-11-26T03:05:47.541Z,18.00
2018-11-26T03:06:47.531Z,16.89
2018-11-26T03:07:47.522Z,16.79
2018-11-26T03:08:47.517Z,16.20
2018-11-26T03:09:47.499Z,16.20
2018-11-26T03:10:47.492Z,16.89
2018-11-26T03:11:47.478Z,17.60
2018-11-26T03:12:47.470Z,17.20
2018-11-26T03:13:47.458Z,16.60
2018-11-26T03:14:47.446Z,17.50
2018-11-26T03:15:47.437Z,16.79
2018-11-26T03:16:47.425Z,17.20
2018-11-26T03:17:47.416Z,17.39
2018-11-26T03:18:47.402Z,16.79
2018-11-26T03:19:47.392Z,17.00
2018-11-26T03:20:47.383Z,18.70
2018-11-26T03:21:47.373Z,19.50
2018-11-26T03:22:47.360Z,16.50
2018-11-26T03:23:47.351Z,15.80
2018-11-26T03:24:47.340Z,19.20
2018-11-26T03:25:47.328Z,17.10
2018-11-26T03:26:47.318Z,16.79
2018-11-26T03:27:47.306Z,15.80
2018-11-26T03:28:47.297Z,18.00
2018-11-26T03:29:47.283Z,17.50
2018-11-26T03:30:47.274Z,16.89
2018-11-26T03:31:47.262Z,17.50
2018-11-26T03:32:47.259Z,15.39
2018-11-26T03:33:47.257Z,17.10
2018-11-26T03:34:47.232Z,17.10
2018-11-26T03:35:47.227Z,17.79
2018-11-26T03:36:47.217Z,18.39
2018-11-26T03:37:47.197Z,20.39
2018-11-26T03:38:47.188Z,19.79
2018-11-26T03:39:47.179Z,21.60
2018-11-26T03:40:47.164Z,20.50
2018-11-26T03:41:47.157Z,18.50
2018-11-26T03:42:47.146Z,18.39
2018-11-26T03:43:47.142Z,22.10
2018-11-26T03:44:47.122Z,20.60
2018-11-26T03:45:47.113Z,20.29
2018-11-26T03:46:47.102Z,20.50
2018-11-26T03:47:47.089Z,19.50
2018-11-26T03:48:47.079Z,19.29
2018-11-26T03:49:47.068Z,21.00
2018-11-26T03:50:47.059Z,19.00
2018-11-26T03:51:47.046Z,19.79
2018-11-26T03:52:47.034Z,18.50
2018-11-26T03:53:47.025Z,18.00
2018-11-26T03:54:47.014Z,18.89
2018-11-26T03:55:47.005Z,18.20
2018-11-26T03:56:46.996Z,17.20
2018-11-26T03:57:46.982Z,18.29
2018-11-26T03:58:46.975Z,19.00
2018-11-26T03:59:46.962Z,18.20
2018-11-26T04:00:46.953Z,18.00
2018-11-26T04:01:46.937Z,19.20
2018-11-26T04:02:46.928Z,20.00
2018-11-26T04:03:46.922Z,19.70
2018-11-26T04:04:46.907Z,18.29
2018-11-26T04:05:46.895Z,19.89
2018-11-26T04:06:46.884Z,17.50
2018-11-26T04:07:46.877Z,19.29
2018-11-26T04:08:46.863Z,20.79
2018-11-26T04:09:46.855Z,18.39
2018-11-26T04:10:46.843Z,20.29
2018-11-26T04:11:46.840Z,19.10
2018-11-26T04:12:46.824Z,17.60
2018-11-26T04:13:46.811Z,17.10
2018-11-26T04:14:46.799Z,18.89
2018-11-26T04:15:46.790Z,21.39
2018-11-26T04:16:46.777Z,20.60
2018-11-26T04:17:46.768Z,18.70
2018-11-26T04:18:46.758Z,17.50
2018-11-26T04:19:46.745Z,16.39
2018-11-26T04:20:46.733Z,17.89
2018-11-26T04:21:46.723Z,17.89
2018-11-26T04:22:46.714Z,21.39
2018-11-26T04:23:46.702Z,18.60
2018-11-26T04:24:46.693Z,19.60
2018-11-26T04:25:46.681Z,21.60
2018-11-26T04:26:46.671Z,22.10
2018-11-26T04:27:46.660Z,21.20
2018-11-26T04:28:46.650Z,26.00
2018-11-26T04:29:46.637Z,20.00
2018-11-26T04:30:46.627Z,22.70
2018-11-26T04:31:46.622Z,23.20
2018-11-26T04:32:46.609Z,22.39
2018-11-26T04:33:46.593Z,21.70
2018-11-26T04:34:46.583Z,22.29
2018-11-26T04:35:46.573Z,21.70
2018-11-26T04:36:46.561Z,24.39
2018-11-26T04:37:46.559Z,22.79
2018-11-26T04:38:46.541Z,22.29
2018-11-26T04:39:46.530Z,22.20
2018-11-26T04:40:46.518Z,23.20
2018-11-26T04:41:46.507Z,22.39
2018-11-26T04:42:46.499Z,20.89
2018-11-26T04:43:46.488Z,21.39
2018-11-26T04:44:46.476Z,20.89
2018-11-26T04:45:46.465Z,19.50
2018-11-26T04:46:46.456Z,24.29
2018-11-26T04:47:46.443Z,20.79
2018-11-26T04:48:46.447Z,19.00
2018-11-26T04:49:46.421Z,21.20
2018-11-26T04:50:46.409Z,19.79
2018-11-26T04:51:46.399Z,20.10
2018-11-26T04:52:46.392Z,21.00
2018-11-26T04:53:46.378Z,22.39
2018-11-26T04:54:46.369Z,20.29
2018-11-26T04:55:46.357Z,19.79
2018-11-26T04:56:46.346Z,19.60
2018-11-26T04:57:46.335Z,19.10
2018-11-26T04:58:46.331Z,19.00
2018-11-26T04:59:46.313Z,18.50
2018-11-26T05:00:46.303Z,17.60
2018-11-26T05:01:46.292Z,18.79
2018-11-26T05:02:46.280Z,18.39
2018-11-26T05:03:46.269Z,17.39
2018-11-26T05:04:46.259Z,16.10
2018-11-26T05:05:46.251Z,18.10
2018-11-26T05:06:46.238Z,17.70
2018-11-26T05:07:46.228Z,16.50
2018-11-26T05:08:46.219Z,17.10
2018-11-26T05:09:46.221Z,16.50
2018-11-26T05:10:46.195Z,17.39
2018-11-26T05:11:46.186Z,16.89
2018-11-26T05:12:46.175Z,16.70
2018-11-26T05:13:46.161Z,16.39
2018-11-26T05:14:46.152Z,17.10
2018-11-26T05:15:46.140Z,16.79
2018-11-26T05:16:46.132Z,16.39
2018-11-26T05:17:46.120Z,16.00
2018-11-26T05:18:46.108Z,15.80
2018-11-26T05:19:46.104Z,16.20
2018-11-26T05:20:46.089Z,16.89
2018-11-26T05:21:46.076Z,16.20
2018-11-26T05:22:46.065Z,17.00
2018-11-26T05:23:46.057Z,16.00
2018-11-26T05:24:46.044Z,16.29
2018-11-26T05:25:46.037Z,16.60
2018-11-26T05:26:46.024Z,16.20
2018-11-26T05:27:46.012Z,16.79
2018-11-26T05:28:46.003Z,17.29
2018-11-26T05:29:45.992Z,17.89
2018-11-26T05:30:45.979Z,17.00
2018-11-26T05:31:45.969Z,17.10
2018-11-26T05:32:45.958Z,17.29
2018-11-26T05:33:45.948Z,17.89
2018-11-26T05:34:45.938Z,17.70
2018-11-26T05:35:45.925Z,16.50
2018-11-26T05:36:45.916Z,17.29
2018-11-26T05:37:45.905Z,17.10
2018-11-26T05:38:45.901Z,17.60
2018-11-26T05:39:45.888Z,17.60
2018-11-26T05:40:45.871Z,18.29
2018-11-26T05:41:45.862Z,17.60
2018-11-26T05:42:45.850Z,16.39
2018-11-26T05:43:45.839Z,16.79
2018-11-26T05:44:45.829Z,17.29
2018-11-26T05:45:45.819Z,17.29
2018-11-26T05:46:45.811Z,16.70
2018-11-26T05:47:45.796Z,17.00
2018-11-26T05:48:45.788Z,17.29
2018-11-26T05:49:45.774Z,17.00
2018-11-26T05:50:45.764Z,18.20
2018-11-26T05:51:45.753Z,17.29
2018-11-26T05:52:45.743Z,17.79
2018-11-26T05:53:45.733Z,17.20
2018-11-26T05:54:45.720Z,17.29
2018-11-26T05:55:45.709Z,17.50
2018-11-26T05:56:45.699Z,17.00
2018-11-26T05:57:45.698Z,16.70
2018-11-26T05:58:45.677Z,17.60
2018-11-26T05:59:45.667Z,17.10
2018-11-26T06:00:45.655Z,16.89
2018-11-26T06:01:45.644Z,16.89
2018-11-26T06:02:45.648Z,16.79
2018-11-26T06:03:45.623Z,17.00
2018-11-26T06:04:45.613Z,17.20
2018-11-26T06:05:45.604Z,16.39
2018-11-26T06:06:45.592Z,17.20
2018-11-26T06:07:45.581Z,17.50
2018-11-26T06:08:45.570Z,17.10
2018-11-26T06:09:45.560Z,16.39
2018-11-26T06:10:45.561Z,16.70
2018-11-26T06:11:45.538Z,17.00
2018-11-26T06:12:45.527Z,16.89
2018-11-26T06:13:45.516Z,16.79
2018-11-26T06:14:45.504Z,15.89
2018-11-26T06:15:45.497Z,15.89
2018-11-26T06:16:45.834Z,16.79
2018-11-26T06:17:45.475Z,17.39
2018-11-26T06:18:45.464Z,15.69
2018-11-26T06:19:45.452Z,16.50
2018-11-26T06:20:45.442Z,16.00
2018-11-26T06:21:45.429Z,14.60
2018-11-26T06:22:45.419Z,15.39
2018-11-26T06:23:45.409Z,15.69
2018-11-26T06:24:45.399Z,16.00
2018-11-26T06:25:45.387Z,16.10
2018-11-26T06:26:45.375Z,15.50
2018-11-26T06:27:45.367Z,16.10
2018-11-26T06:28:45.353Z,16.10
2018-11-26T06:29:45.345Z,15.89
2018-11-26T06:30:45.335Z,16.10
2018-11-26T06:31:45.323Z,16.10
2018-11-26T06:32:45.311Z,16.00
2018-11-26T06:33:45.302Z,16.00
2018-11-26T06:34:45.289Z,17.39
2018-11-26T06:35:45.283Z,16.00
2018-11-26T06:36:45.267Z,15.10
2018-11-26T06:37:45.260Z,14.10
2018-11-26T06:38:45.246Z,15.19
2018-11-26T06:39:45.236Z,14.80
2018-11-26T06:40:45.226Z,16.39
2018-11-26T06:41:45.215Z,16.00
2018-11-26T06:42:45.205Z,16.29
2018-11-26T06:43:45.193Z,15.80
2018-11-26T06:44:45.182Z,16.10
2018-11-26T06:45:45.172Z,15.10
2018-11-26T06:46:45.161Z,17.20
2018-11-26T06:47:45.160Z,16.89
2018-11-26T06:48:45.393Z,18.20
2018-11-26T06:49:45.128Z,16.39
2018-11-26T06:50:45.119Z,16.00
2018-11-26T06:51:45.118Z,14.30
2018-11-26T06:52:45.095Z,15.00
2018-11-26T06:53:45.086Z,15.69
2018-11-26T06:54:45.077Z,15.50
2018-11-26T06:55:45.109Z,15.30
2018-11-26T06:56:45.053Z,15.69
2018-11-26T06:57:45.043Z,16.60
2018-11-26T06:58:45.032Z,16.79
2018-11-26T06:59:45.022Z,16.10
2018-11-26T07:00:45.009Z,16.10
2018-11-26T07:01:45.000Z,16.10
2018-11-26T07:02:44.989Z,15.50
2018-11-26T07:03:45.033Z,16.10
2018-11-26T07:04:44.991Z,16.60
2018-11-26T07:05:44.959Z,17.79
2018-11-26T07:06:44.944Z,16.89
2018-11-26T07:07:44.934Z,16.79
2018-11-26T07:08:44.922Z,16.29
2018-11-26T07:09:44.912Z,17.89
2018-11-26T07:10:44.904Z,18.39
2018-11-26T07:11:44.890Z,17.00
2018-11-26T07:12:44.880Z,21.20
2018-11-26T07:13:44.869Z,19.10
2018-11-26T07:14:44.859Z,20.20
2018-11-26T07:15:44.849Z,19.20
2018-11-26T07:16:44.850Z,18.50
2018-11-26T07:17:44.824Z,21.70
2018-11-26T07:18:44.818Z,23.79
2018-11-26T07:19:44.803Z,24.00
2018-11-26T07:20:44.793Z,22.89
2018-11-26T07:21:44.783Z,22.60
2018-11-26T07:22:44.773Z,22.89
2018-11-26T07:23:44.760Z,23.10
2018-11-26T07:24:44.755Z,22.20
2018-11-26T07:25:44.741Z,21.39
2018-11-26T07:26:44.732Z,22.70
2018-11-26T07:27:44.720Z,21.70
2018-11-26T07:28:44.711Z,21.29
2018-11-26T07:29:44.699Z,21.10
2018-11-26T07:30:44.692Z,20.10
2018-11-26T07:31:44.675Z,20.89
2018-11-26T07:32:44.666Z,18.89
2018-11-26T07:33:44.654Z,21.00
2018-11-26T07:34:44.642Z,19.79
2018-11-26T07:35:44.633Z,21.50
2018-11-26T07:36:44.628Z,20.00
2018-11-26T07:37:44.611Z,19.89
2018-11-26T07:38:44.601Z,21.29
2018-11-26T07:39:44.593Z,20.00
2018-11-26T07:40:44.577Z,21.60
2018-11-26T07:41:44.566Z,22.29
2018-11-26T07:42:44.563Z,20.50
2018-11-26T07:43:44.546Z,19.50
2018-11-26T07:44:44.535Z,20.60
2018-11-26T07:45:44.531Z,20.20
2018-11-26T07:46:44.513Z,19.89
2018-11-26T07:47:44.503Z,21.70
2018-11-26T07:48:44.491Z,22.20
2018-11-26T07:49:44.481Z,41.79
2018-11-26T07:50:44.473Z,21.70
2018-11-26T07:51:44.459Z,18.70
2018-11-26T07:52:44.447Z,21.60
2018-11-26T07:53:44.437Z,23.29
2018-11-26T07:54:44.427Z,21.29
2018-11-26T07:55:44.416Z,22.29
2018-11-26T07:56:44.412Z,21.50
2018-11-26T07:57:44.395Z,23.29
2018-11-26T07:58:44.386Z,21.00
2018-11-26T07:59:44.374Z,21.79
2018-11-26T08:00:44.364Z,20.89
2018-11-26T08:01:44.357Z,21.29
2018-11-26T08:02:44.341Z,23.50
2018-11-26T08:03:44.331Z,20.70
2018-11-26T08:04:44.319Z,20.39
2018-11-26T08:05:44.312Z,23.29
2018-11-26T08:06:44.297Z,24.60
2018-11-26T08:07:44.286Z,20.89
2018-11-26T08:08:44.342Z,22.70
2018-11-26T08:09:44.284Z,22.29
2018-11-26T08:10:44.288Z,25.20
2018-11-26T08:11:44.303Z,24.50
2018-11-26T08:12:44.323Z,24.29
2018-11-26T08:13:44.279Z,23.60
2018-11-26T08:14:44.276Z,23.60
2018-11-26T08:15:44.276Z,23.29
2018-11-26T08:16:44.243Z,21.00
2018-11-26T08:17:44.265Z,20.29
2018-11-26T08:18:44.256Z,22.29
2018-11-26T08:19:44.201Z,21.89
2018-11-26T08:20:44.233Z,20.50
2018-11-26T08:21:44.173Z,23.39
2018-11-26T08:22:44.170Z,22.50
2018-11-26T08:23:44.127Z,21.70
2018-11-26T08:24:44.138Z,20.10
2018-11-26T08:25:44.137Z,21.29
2018-11-26T08:26:44.113Z,21.29
2018-11-26T08:27:44.109Z,21.50
2018-11-26T08:28:44.143Z,23.60
2018-11-26T08:29:44.083Z,22.39
2018-11-26T08:30:44.074Z,23.60
2018-11-26T08:31:44.098Z,23.60
2018-11-26T08:32:44.067Z,22.29
2018-11-26T08:33:44.105Z,21.00
2018-11-26T08:34:44.028Z,24.50
2018-11-26T08:35:44.068Z,24.10
2018-11-26T08:36:44.005Z,26.39
2018-11-26T08:37:43.998Z,24.10
2018-11-26T08:38:44.035Z,23.29
2018-11-26T08:39:43.981Z,24.00
2018-11-26T08:40:43.953Z,23.10
2018-11-26T08:41:43.933Z,22.29
2018-11-26T08:42:43.909Z,22.00
2018-11-26T08:43:43.907Z,21.89
2018-11-26T08:44:43.910Z,21.79
2018-11-26T08:45:43.911Z,21.20
2018-11-26T08:46:43.893Z,21.00
2018-11-26T08:47:43.867Z,20.79
2018-11-26T08:48:43.852Z,20.60
2018-11-26T08:49:43.844Z,19.29
2018-11-26T08:50:43.868Z,19.20
2018-11-26T08:51:43.846Z,18.89
2018-11-26T08:52:43.804Z,20.60
2018-11-26T08:53:43.791Z,22.00
2018-11-26T08:54:43.780Z,20.70
2018-11-26T08:55:43.766Z,18.79
2018-11-26T08:56:43.775Z,20.20
2018-11-26T08:57:43.746Z,22.10
2018-11-26T08:58:43.738Z,21.60
2018-11-26T08:59:43.727Z,22.79
2018-11-26T09:00:43.720Z,21.60
2018-11-26T09:01:43.703Z,23.39
2018-11-26T09:02:43.692Z,25.00
2018-11-26T09:03:43.681Z,25.39
2018-11-26T09:04:43.672Z,25.20
2018-11-26T09:05:43.660Z,25.20
2018-11-26T09:06:43.649Z,26.39
2018-11-26T09:07:43.639Z,31.60
2018-11-26T09:08:43.627Z,28.79
2018-11-26T09:09:43.620Z,25.79
2018-11-26T09:10:43.607Z,27.50
2018-11-26T09:11:43.600Z,25.29
2018-11-26T09:12:43.585Z,24.70
2018-11-26T09:13:43.574Z,26.60
2018-11-26T09:14:43.566Z,24.10
2018-11-26T09:15:43.556Z,26.60
2018-11-26T09:16:43.541Z,27.10
2018-11-26T09:17:43.530Z,24.79
2018-11-26T09:18:43.521Z,24.00
2018-11-26T09:19:43.511Z,26.79
2018-11-26T09:20:43.499Z,28.79
2018-11-26T09:21:43.486Z,28.60
2018-11-26T09:22:43.477Z,27.50
2018-11-26T09:23:43.465Z,23.10
2018-11-26T09:24:43.454Z,22.89
2018-11-26T09:25:43.447Z,24.00
2018-11-26T09:26:43.434Z,23.10
2018-11-26T09:27:43.425Z,23.70
2018-11-26T09:28:43.416Z,24.50
2018-11-26T09:29:43.400Z,25.89
2018-11-26T09:30:43.392Z,23.20
2018-11-26T09:31:43.380Z,23.39
2018-11-26T09:32:43.370Z,24.60
2018-11-26T09:33:43.359Z,22.79
2018-11-26T09:34:43.345Z,23.29
2018-11-26T09:35:43.335Z,22.10
2018-11-26T09:36:43.326Z,22.70
2018-11-26T09:37:43.314Z,22.10
2018-11-26T09:38:43.305Z,22.00
2018-11-26T09:39:43.293Z,20.89
2018-11-26T09:40:43.281Z,21.00
2018-11-26T09:41:43.273Z,20.79
2018-11-26T09:42:43.260Z,20.50
2018-11-26T09:43:43.251Z,22.29
2018-11-26T09:44:43.237Z,22.29
2018-11-26T09:45:43.230Z,22.79
2018-11-26T09:46:43.219Z,23.39
2018-11-26T09:47:43.206Z,24.89
2018-11-26T09:48:43.194Z,25.00
2018-11-26T09:49:43.183Z,23.60
2018-11-26T09:50:43.172Z,23.70
2018-11-26T09:51:43.161Z,22.79
2018-11-26T09:52:43.153Z,23.00
2018-11-26T09:53:43.142Z,26.10
2018-11-26T09:54:43.129Z,25.79
2018-11-26T09:55:43.121Z,25.60
2018-11-26T09:56:43.109Z,26.29
2018-11-26T09:57:43.102Z,24.50
2018-11-26T09:58:43.087Z,24.29
2018-11-26T09:59:43.077Z,24.29
2018-11-26T10:00:43.067Z,22.79
2018-11-26T10:01:43.057Z,25.70
2018-11-26T10:02:43.045Z,25.29
2018-11-26T10:03:43.034Z,26.00
2018-11-26T10:04:43.029Z,25.20
2018-11-26T10:05:43.012Z,22.20
2018-11-26T10:06:43.001Z,23.50
2018-11-26T10:07:43.039Z,23.70
2018-11-26T10:08:42.980Z,22.50
2018-11-26T10:09:42.970Z,24.70
2018-11-26T10:10:42.957Z,25.89
2018-11-26T10:11:42.945Z,25.00
2018-11-26T10:12:42.936Z,25.20
2018-11-26T10:13:42.924Z,26.29
2018-11-26T10:14:42.953Z,25.20
2018-11-26T10:15:42.903Z,26.89
2018-11-26T10:16:42.893Z,25.50
2018-11-26T10:17:42.882Z,28.00
2018-11-26T10:18:42.871Z,26.70
2018-11-26T10:19:42.861Z,26.70
2018-11-26T10:20:42.848Z,29.39
2018-11-26T10:21:42.837Z,27.50
2018-11-26T10:22:42.837Z,24.70
2018-11-26T10:23:42.814Z,25.10
2018-11-26T10:24:42.805Z,24.89
2018-11-26T10:25:42.793Z,26.20
2018-11-26T10:26:42.784Z,29.00
2018-11-26T10:27:42.772Z,28.29
2018-11-26T10:28:42.761Z,30.10
2018-11-26T10:29:42.752Z,26.20
2018-11-26T10:30:42.744Z,26.20
2018-11-26T10:31:42.810Z,25.89
2018-11-26T10:32:42.725Z,26.89
2018-11-26T10:33:42.709Z,24.20
2018-11-26T10:34:42.717Z,25.00
2018-11-26T10:35:42.688Z,25.00
2018-11-26T10:36:42.675Z,25.50
2018-11-26T10:37:42.667Z,24.10
2018-11-26T10:38:42.654Z,23.10
2018-11-26T10:39:42.643Z,25.00
2018-11-26T10:40:42.638Z,26.39
2018-11-26T10:41:42.622Z,28.79
2018-11-26T10:42:42.609Z,26.29
2018-11-26T10:43:42.599Z,24.89
2018-11-26T10:44:42.590Z,24.10
2018-11-26T10:45:42.579Z,21.39
2018-11-26T10:46:42.567Z,21.39
2018-11-26T10:47:42.558Z,20.50
2018-11-26T10:48:42.545Z,19.60
2018-11-26T10:49:42.535Z,21.79
2018-11-26T10:50:42.525Z,22.89
2018-11-26T10:51:42.518Z,20.00
2018-11-26T10:52:42.503Z,20.70
2018-11-26T10:53:42.494Z,19.29
2018-11-26T10:54:42.480Z,19.20
2018-11-26T10:55:42.471Z,19.70
2018-11-26T10:56:42.457Z,20.20
2018-11-26T10:57:42.447Z,19.39
2018-11-26T10:58:42.437Z,19.89
2018-11-26T10:59:42.428Z,20.20
2018-11-26T11:00:42.416Z,20.89
2018-11-26T11:01:42.404Z,20.89
2018-11-26T11:02:42.393Z,20.10
2018-11-26T11:03:42.382Z,20.89
2018-11-26T11:04:47.623Z,21.70
2018-11-26T11:05:42.361Z,20.50
2018-11-26T11:06:42.365Z,20.39
2018-11-26T11:07:42.339Z,21.10
2018-11-26T11:08:42.329Z,21.60
2018-11-26T11:09:42.319Z,22.89
2018-11-26T11:10:42.322Z,22.50
2018-11-26T11:11:42.298Z,22.70
2018-11-26T11:12:42.286Z,23.29
2018-11-26T11:13:42.282Z,21.29
2018-11-26T11:14:42.265Z,21.29
2018-11-26T11:15:42.254Z,20.89
2018-11-26T11:16:42.242Z,21.39
2018-11-26T11:17:42.233Z,22.79
2018-11-26T11:18:42.219Z,21.89
2018-11-26T11:19:42.211Z,21.00
2018-11-26T11:20:42.199Z,22.00
2018-11-26T11:21:42.188Z,21.10
2018-11-26T11:22:42.177Z,21.20
2018-11-26T11:23:42.168Z,25.70
2018-11-26T11:24:42.157Z,24.29
2018-11-26T11:25:42.143Z,24.79
2018-11-26T11:26:42.140Z,21.50
2018-11-26T11:27:43.539Z,21.50
2018-11-26T11:28:42.112Z,22.89
2018-11-26T11:29:42.103Z,22.20
2018-11-26T11:30:42.090Z,20.70
2018-11-26T11:31:42.084Z,23.10
2018-11-26T11:32:42.068Z,22.70
2018-11-26T11:33:42.062Z,25.10
2018-11-26T11:34:42.050Z,23.39
2018-11-26T11:35:42.036Z,21.00
2018-11-26T11:36:42.027Z,20.70
2018-11-26T11:37:42.015Z,21.29
2018-11-26T11:38:42.025Z,21.50
2018-11-26T11:39:41.993Z,21.50
2018-11-26T11:40:41.987Z,19.10
2018-11-26T11:41:41.971Z,19.20
2018-11-26T11:42:41.961Z,20.29
2018-11-26T11:43:41.950Z,19.89
2018-11-26T11:44:41.944Z,19.29
2018-11-26T11:45:41.926Z,18.29
2018-11-26T11:46:41.919Z,18.60
2018-11-26T11:47:41.906Z,18.29
2018-11-26T11:48:41.896Z,18.29
2018-11-26T11:49:41.884Z,19.20
2018-11-26T11:50:41.875Z,18.39
2018-11-26T11:51:41.863Z,20.10
2018-11-26T11:52:41.851Z,21.00
2018-11-26T11:53:41.845Z,19.89
2018-11-26T11:54:41.831Z,19.89
2018-11-26T11:55:41.818Z,19.79
2018-11-26T11:56:41.810Z,20.79
2018-11-26T11:57:41.799Z,21.10
2018-11-26T11:58:41.788Z,21.60
2018-11-26T11:59:41.777Z,24.39
2018-11-26T12:00:41.768Z,21.60
2018-11-26T12:01:41.754Z,22.10
2018-11-26T12:02:41.746Z,21.50
2018-11-26T12:03:41.733Z,20.60
2018-11-26T12:04:41.722Z,20.89
2018-11-26T12:05:41.715Z,21.20
2018-11-26T12:06:41.701Z,20.89
2018-11-26T12:07:41.689Z,21.39
2018-11-26T12:08:41.678Z,23.89
2018-11-26T12:09:41.671Z,22.29
2018-11-26T12:10:41.656Z,22.00
2018-11-26T12:11:41.645Z,21.89
2018-11-26T12:12:41.635Z,21.60
2018-11-26T12:13:41.625Z,22.20
2018-11-26T12:14:41.614Z,19.70
2018-11-26T12:15:41.601Z,20.39
2018-11-26T12:16:41.593Z,20.89
2018-11-26T12:17:41.580Z,19.50
2018-11-26T12:18:41.570Z,17.60
2018-11-26T12:19:41.560Z,19.10
2018-11-26T12:20:41.547Z,19.20
2018-11-26T12:21:41.537Z,17.70
2018-11-26T12:22:41.530Z,19.70
2018-11-26T12:23:41.514Z,18.70
2018-11-26T12:24:41.504Z,21.60
2018-11-26T12:25:41.492Z,18.60
2018-11-26T12:26:41.485Z,18.29
2018-11-26T12:27:41.472Z,19.79
2018-11-26T12:28:41.463Z,21.29
2018-11-26T12:29:41.489Z,21.50
2018-11-26T12:30:41.439Z,19.60
2018-11-26T12:31:41.433Z,18.39
2018-11-26T12:32:41.419Z,17.60
2018-11-26T12:33:41.405Z,21.50
2018-11-26T12:34:41.396Z,19.60
2018-11-26T12:35:41.385Z,18.10
2018-11-26T12:36:41.375Z,17.60
2018-11-26T12:37:41.363Z,18.79
2018-11-26T12:38:41.354Z,16.79
2018-11-26T12:39:41.344Z,17.89
2018-11-26T12:40:41.331Z,16.79
2018-11-26T12:41:41.320Z,19.20
2018-11-26T12:42:41.310Z,16.60
2018-11-26T12:43:41.301Z,17.39
2018-11-26T12:44:41.286Z,17.60
2018-11-26T12:45:41.277Z,17.20
2018-11-26T12:46:41.265Z,20.20
2018-11-26T12:47:41.254Z,21.00
2018-11-26T12:48:41.244Z,21.79
2018-11-26T12:49:41.232Z,22.50
2018-11-26T12:50:41.224Z,22.29
2018-11-26T12:51:41.211Z,28.29
2018-11-26T12:52:41.202Z,31.00